Time;durP1;ratioP1;P1;durP2;ratioP2;P2;SDS_P1;SDS_P2;PMS_P1;PMS_P2;Temp;Humidity;BMP_temperature;BMP_pressure;BME280_temperature;BME280_humidity;BME280_pressure;Samples;Min_cycle;Max_cycle;Signal;HPM_P1;HPM_P2
2023/05/19 00:01:59;;;;;;;5.07;3.13;;;10.70;87.20;;;;;;6168540;23;20421;-71
2023/05/19 00:04:25;;;;;;;7.77;3.13;;;10.60;87.60;;;;;;6168501;23;20366;-72
2023/05/19 00:06:53;;;;;;;5.67;2.90;;;10.50;87.80;;;;;;6195764;23;20362;-72
2023/05/19 00:09:19;;;;;;;6.87;3.13;;;10.50;88.60;;;;;;6193080;23;20386;-73
2023/05/19 00:11:45;;;;;;;7.17;3.40;;;10.40;89.40;;;;;;6193922;23;20370;-72
2023/05/19 00:14:12;;;;;;;7.03;2.70;;;10.40;90.20;;;;;;6168059;23;20402;-71
2023/05/19 00:16:38;;;;;;;9.83;2.77;;;10.40;90.50;;;;;;6169231;23;20373;-75
2023/05/19 00:19:04;;;;;;;8.77;3.03;;;10.30;90.80;;;;;;6194579;23;20427;-72
2023/05/19 00:21:30;;;;;;;5.70;2.90;;;10.30;91.20;;;;;;6196580;23;20398;-71
2023/05/19 00:23:56;;;;;;;3.87;2.40;;;10.30;91.50;;;;;;6195171;23;20688;-73
2023/05/19 00:26:23;;;;;;;4.20;3.07;;;10.20;91.80;;;;;;6195673;23;20637;-72
2023/05/19 00:29:00;;;;;;;3.00;2.13;;;10.10;92.10;;;;;;6195469;23;20350;-71
2023/05/19 00:31:26;;;;;;;3.63;1.73;;;10.10;92.70;;;;;;6169926;23;20365;-71
2023/05/19 00:33:52;;;;;;;3.60;2.33;;;10.00;93.60;;;;;;6195843;23;20143;-73
2023/05/19 00:36:17;;;;;;;4.17;2.30;;;10.10;94.80;;;;;;6195458;23;20135;-72
2023/05/19 00:38:43;;;;;;;5.50;3.13;;;10.10;95.60;;;;;;6171042;23;20143;-74
2023/05/19 00:41:09;;;;;;;5.90;3.60;;;10.20;96.00;;;;;;6197921;23;20415;-72
2023/05/19 00:43:35;;;;;;;10.67;4.30;;;10.20;96.40;;;;;;6197139;23;20173;-72
2023/05/19 00:46:01;;;;;;;4.67;3.20;;;10.20;97.10;;;;;;6196528;23;20358;-72
2023/05/19 00:48:27;;;;;;;5.13;3.17;;;10.20;96.70;;;;;;6172393;23;20183;-72
2023/05/19 00:50:54;;;;;;;6.43;2.90;;;10.20;96.70;;;;;;6197533;23;20889;-72
2023/05/19 00:53:21;;;;;;;3.80;2.70;;;10.20;96.90;;;;;;6197317;23;20173;-72
2023/05/19 00:55:48;;;;;;;6.50;3.07;;;10.10;97.00;;;;;;6171266;23;20366;-72
2023/05/19 00:58:14;;;;;;;6.43;3.87;;;10.10;97.40;;;;;;6170017;23;20373;-71
2023/05/19 01:00:41;;;;;;;4.27;3.23;;;10.00;98.60;;;;;;6170177;23;20491;-72
2023/05/19 01:03:09;;;;;;;5.50;2.73;;;10.00;99.10;;;;;;6179532;23;20374;-73
2023/05/19 01:05:41;;;;;;;3.93;2.77;;;10.00;98.90;;;;;;6197905;23;20369;-73
2023/05/19 01:08:07;;;;;;;5.87;3.73;;;10.00;99.70;;;;;;6170192;23;20358;-72
2023/05/19 01:10:33;;;;;;;4.40;2.80;;;9.90;99.90;;;;;;6169698;23;20417;-72
2023/05/19 01:13:00;;;;;;;3.23;2.63;;;9.90;99.90;;;;;;6169312;23;20366;-72
2023/05/19 01:15:27;;;;;;;3.77;2.33;;;9.90;99.90;;;;;;6194313;23;20131;-72
2023/05/19 01:18:11;;;;;;;5.40;2.67;;;9.80;99.90;;;;;;6194799;23;20378;-72
2023/05/19 01:20:52;;;;;;;8.00;4.20;;;9.80;99.90;;;;;;6192731;23;20409;-70
2023/05/19 01:23:42;;;;;;;5.73;3.70;;;9.90;99.90;;;;;;6192289;23;20394;-72
2023/05/19 01:26:34;;;;;;;5.40;3.67;;;9.80;99.90;;;;;;6193810;23;20390;-72
2023/05/19 01:29:23;;;;;;;5.83;3.50;;;9.80;99.90;;;;;;6194870;23;20361;-74
2023/05/19 01:31:52;;;;;;;4.80;3.20;;;9.80;99.90;;;;;;6171399;23;20362;-73
2023/05/19 01:34:19;;;;;;;5.40;3.60;;;9.70;99.90;;;;;;6177982;23;20376;-72
2023/05/19 01:36:48;;;;;;;7.70;3.77;;;9.70;99.90;;;;;;6169888;23;20437;-73
2023/05/19 01:39:14;;;;;;;6.00;4.20;;;9.60;99.90;;;;;;6166905;23;20501;-71
2023/05/19 01:41:43;;;;;;;4.70;3.50;;;9.60;99.90;;;;;;6193808;23;20485;-72
2023/05/19 01:44:09;;;;;;;4.67;4.13;;;9.60;99.90;;;;;;6196878;23;20366;-71
2023/05/19 01:46:36;;;;;;;5.63;3.80;;;9.50;99.90;;;;;;6170142;23;20370;-73
2023/05/19 01:49:03;;;;;;;7.40;3.90;;;9.50;99.90;;;;;;6198860;23;20417;-71
2023/05/19 01:51:30;;;;;;;8.17;3.87;;;9.50;99.90;;;;;;6193980;23;20370;-71
2023/05/19 01:53:55;;;;;;;7.00;3.40;;;9.50;99.90;;;;;;6195130;23;20457;-72
2023/05/19 01:56:36;;;;;;;4.83;3.40;;;9.50;99.90;;;;;;6196689;23;20370;-71
2023/05/19 01:59:15;;;;;;;5.47;3.63;;;9.40;99.90;;;;;;6172059;23;20150;-72
2023/05/19 02:01:52;;;;;;;7.50;4.00;;;9.40;99.90;;;;;;6171484;23;20406;-74
2023/05/19 02:04:38;;;;;;;8.43;5.00;;;9.40;99.90;;;;;;6171008;23;20460;-72
2023/05/19 02:07:36;;;;;;;6.47;4.17;;;9.40;99.90;;;;;;6167393;23;20570;-73
2023/05/19 02:10:10;;;;;;;5.83;3.23;;;9.40;99.90;;;;;;6184122;23;20699;-72
2023/05/19 02:12:39;;;;;;;6.43;3.30;;;9.30;99.90;;;;;;6192420;23;20362;-72
2023/05/19 02:15:22;;;;;;;5.63;3.30;;;9.30;99.90;;;;;;6193202;23;20366;-72
2023/05/19 02:17:50;;;;;;;4.80;3.50;;;9.30;99.90;;;;;;6193728;23;20365;-71
2023/05/19 02:20:17;;;;;;;4.40;3.60;;;9.30;99.90;;;;;;6165976;23;20684;-71
2023/05/19 02:22:43;;;;;;;4.60;3.10;;;9.30;99.90;;;;;;6165829;23;20444;-72
2023/05/19 02:25:10;;;;;;;4.70;3.73;;;9.20;99.90;;;;;;6192790;23;20402;-71
2023/05/19 02:27:37;;;;;;;6.80;3.57;;;9.30;99.90;;;;;;6192277;23;20441;-70
2023/05/19 02:30:04;;;;;;;5.47;3.50;;;9.20;99.90;;;;;;6191317;23;20469;-71
2023/05/19 02:32:30;;;;;;;6.90;3.87;;;9.20;99.90;;;;;;6192793;23;20354;-72
2023/05/19 02:34:55;;;;;;;8.00;3.80;;;9.20;99.90;;;;;;6167052;23;20405;-72
2023/05/19 02:37:24;;;;;;;7.93;4.93;;;9.20;99.90;;;;;;6192413;23;20378;-71
2023/05/19 02:39:50;;;;;;;6.70;3.30;;;9.20;99.90;;;;;;6192796;23;20162;-70
2023/05/19 02:42:17;;;;;;;8.23;4.77;;;9.10;99.90;;;;;;6193300;23;20402;-73
2023/05/19 02:44:42;;;;;;;6.70;4.87;;;9.10;99.90;;;;;;6193666;23;20390;-72
2023/05/19 02:47:08;;;;;;;4.07;3.53;;;9.10;99.90;;;;;;6192675;23;20794;-71
2023/05/19 02:49:34;;;;;;;6.33;3.50;;;9.00;99.90;;;;;;6202252;23;20409;-71
2023/05/19 02:52:01;;;;;;;6.60;4.13;;;9.00;99.90;;;;;;6166955;23;20197;-72
2023/05/19 02:54:28;;;;;;;3.77;2.90;;;9.00;99.90;;;;;;6193175;23;20612;-72
2023/05/19 02:56:54;;;;;;;8.60;3.90;;;9.00;99.90;;;;;;6191923;23;20422;-72
2023/05/19 02:59:20;;;;;;;5.17;3.63;;;8.90;99.90;;;;;;6190722;23;20404;-71
2023/05/19 03:01:46;;;;;;;8.30;3.97;;;8.90;99.90;;;;;;6166387;23;20429;-71
2023/05/19 03:04:12;;;;;;;6.27;3.60;;;8.90;99.90;;;;;;6165856;23;20389;-73
2023/05/19 03:06:38;;;;;;;7.40;4.13;;;8.80;99.90;;;;;;6166438;23;20679;-72
2023/05/19 03:09:04;;;;;;;5.33;3.83;;;8.80;99.90;;;;;;6169891;23;20382;-71
2023/05/19 03:11:30;;;;;;;8.07;4.17;;;8.70;99.90;;;;;;6197086;23;20396;-72
2023/05/19 03:13:56;;;;;;;8.83;5.20;;;8.70;99.90;;;;;;6171735;23;20421;-72
2023/05/19 03:16:22;;;;;;;7.40;4.40;;;8.70;99.90;;;;;;6170383;23;20366;-70
2023/05/19 03:18:47;;;;;;;7.00;3.70;;;8.70;99.90;;;;;;6197973;23;20488;-72
2023/05/19 03:21:13;;;;;;;5.07;3.90;;;8.70;99.90;;;;;;6197927;23;20229;-72
2023/05/19 03:23:40;;;;;;;4.03;3.60;;;8.60;99.90;;;;;;6170883;23;20146;-70
2023/05/19 03:26:05;;;;;;;5.17;3.83;;;8.60;99.90;;;;;;6200595;23;20138;-71
2023/05/19 03:28:31;;;;;;;3.47;3.17;;;8.60;99.90;;;;;;6176464;23;20625;-73
2023/05/19 03:30:56;;;;;;;6.13;4.10;;;8.60;99.90;;;;;;6193798;23;20213;-71
2023/05/19 03:33:28;;;;;;;4.40;3.00;;;8.60;99.90;;;;;;6169336;23;20542;-71
2023/05/19 03:35:55;;;;;;;6.70;3.50;;;8.70;99.90;;;;;;6192674;23;20366;-72
2023/05/19 03:38:20;;;;;;;4.00;3.03;;;8.60;99.90;;;;;;6166135;23;20570;-71
2023/05/19 03:40:54;;;;;;;9.33;4.40;;;8.60;99.90;;;;;;6163300;23;20431;-71
2023/05/19 03:43:20;;;;;;;5.17;3.47;;;8.60;99.90;;;;;;6160765;23;20366;-71
2023/05/19 03:45:52;;;;;;;5.37;3.00;;;8.60;99.90;;;;;;6160904;23;20146;-71
2023/05/19 03:48:44;;;;;;;2.87;2.60;;;8.60;99.90;;;;;;6181788;23;20412;-71
2023/05/19 03:51:28;;;;;;;6.90;4.40;;;8.60;99.90;;;;;;6187029;23;20368;-71
2023/05/19 03:54:00;;;;;;;7.50;3.57;;;8.60;99.90;;;;;;6160878;23;20393;-70
2023/05/19 03:56:26;;;;;;;7.57;2.90;;;8.60;99.90;;;;;;6161180;23;20427;-72
2023/05/19 03:58:53;;;;;;;4.37;3.43;;;8.50;99.90;;;;;;6161204;23;20147;-70
2023/05/19 04:01:20;;;;;;;5.77;3.30;;;8.50;99.90;;;;;;6163562;23;20406;-71
2023/05/19 04:03:45;;;;;;;4.40;3.30;;;8.50;99.90;;;;;;6160423;23;20428;-70
2023/05/19 04:06:11;;;;;;;5.97;3.47;;;8.60;99.90;;;;;;6186602;23;20182;-72
2023/05/19 04:08:38;;;;;;;4.37;2.70;;;8.60;99.90;;;;;;6187400;23;20137;-72
2023/05/19 04:11:04;;;;;;;4.90;3.13;;;8.70;99.90;;;;;;6136605;23;20394;-71
2023/05/19 04:13:32;;;;;;;5.97;3.10;;;8.70;99.90;;;;;;6162076;23;20388;-71
2023/05/19 04:15:58;;;;;;;6.03;3.60;;;8.90;99.90;;;;;;6187396;23;20143;-71
2023/05/19 04:18:25;;;;;;;4.10;3.70;;;8.90;99.90;;;;;;6187283;23;20429;-71
2023/05/19 04:20:50;;;;;;;3.57;3.13;;;9.00;99.90;;;;;;6160557;23;20731;-73
2023/05/19 04:23:16;;;;;;;4.43;2.93;;;9.10;99.90;;;;;;6187924;23;20154;-71
2023/05/19 04:25:42;;;;;;;6.20;3.00;;;9.10;99.90;;;;;;6160464;23;20138;-72
2023/05/19 04:28:08;;;;;;;3.30;2.53;;;9.10;99.90;;;;;;6163947;23;20632;-71
2023/05/19 04:30:33;;;;;;;2.83;2.03;;;9.20;99.90;;;;;;6187080;23;20420;-71
2023/05/19 04:33:00;;;;;;;2.53;1.93;;;9.20;99.90;;;;;;6161683;23;20508;-71
2023/05/19 04:35:26;;;;;;;2.40;1.93;;;9.40;99.90;;;;;;6191548;23;20425;-72
2023/05/19 04:37:55;;;;;;;6.93;2.40;;;9.50;99.90;;;;;;6160646;23;20696;-72
2023/05/19 04:40:26;;;;;;;7.63;2.80;;;9.60;99.90;;;;;;6160964;23;20397;-71
2023/05/19 04:42:52;;;;;;;4.30;2.30;;;9.60;99.90;;;;;;6187013;23;20636;-70
2023/05/19 04:45:18;;;;;;;3.93;2.13;;;9.70;99.90;;;;;;6186772;23;20436;-73
2023/05/19 04:47:48;;;;;;;2.03;1.70;;;9.70;99.90;;;;;;6161169;23;20806;-72
2023/05/19 04:50:15;;;;;;;3.10;2.57;;;9.80;99.90;;;;;;6186746;23;20410;-72
2023/05/19 04:52:41;;;;;;;3.03;2.40;;;9.90;99.90;;;;;;6188140;23;20184;-74
2023/05/19 04:55:07;;;;;;;3.90;2.30;;;10.00;99.90;;;;;;6166942;23;20385;-72
2023/05/19 04:57:33;;;;;;;14.63;5.23;;;10.20;99.90;;;;;;6169205;23;20374;-71
2023/05/19 04:59:59;;;;;;;8.33;4.60;;;10.50;99.90;;;;;;6168697;23;20433;-71
2023/05/19 05:02:30;;;;;;;13.07;5.90;;;11.10;99.90;;;;;;6169611;23;20508;-71
2023/05/19 05:04:56;;;;;;;7.53;5.10;;;11.70;97.70;;;;;;6171242;23;20377;-72
2023/05/19 05:07:23;;;;;;;6.93;4.97;;;12.20;94.50;;;;;;6172246;23;20794;-72
2023/05/19 05:09:51;;;;;;;12.60;6.33;;;12.60;91.60;;;;;;6173248;23;20457;-72
2023/05/19 05:12:18;;;;;;;9.27;4.20;;;12.90;87.10;;;;;;6199262;23;20397;-72
2023/05/19 05:14:45;;;;;;;8.83;5.33;;;13.20;81.50;;;;;;6173534;23;20471;-73
2023/05/19 05:17:12;;;;;;;6.73;3.40;;;13.50;78.20;;;;;;6199093;23;20767;-75
2023/05/19 05:19:38;;;;;;;7.83;2.77;;;13.90;74.50;;;;;;6171863;23;20254;-72
2023/05/19 05:22:05;;;;;;;6.40;3.50;;;14.30;68.80;;;;;;6171667;23;20410;-72
2023/05/19 05:24:32;;;;;;;4.90;3.53;;;14.60;63.90;;;;;;6173868;23;20660;-74
2023/05/19 05:27:00;;;;;;;5.27;3.33;;;14.90;61.50;;;;;;6172874;23;20408;-74
2023/05/19 05:29:26;;;;;;;8.93;3.33;;;15.10;59.40;;;;;;6174604;23;20394;-75
2023/05/19 05:31:51;;;;;;;7.57;3.70;;;15.30;58.50;;;;;;6201662;23;20491;-72
2023/05/19 05:34:18;;;;;;;5.30;3.97;;;15.60;57.90;;;;;;6174005;23;20151;-73
2023/05/19 05:36:44;;;;;;;4.20;2.47;;;15.90;56.80;;;;;;6174962;23;20210;-76
2023/05/19 05:39:10;;;;;;;6.17;3.00;;;16.20;55.50;;;;;;6174520;23;20398;-76
2023/05/19 05:41:37;;;;;;;6.10;2.80;;;16.50;54.50;;;;;;6173328;23;20173;-76
2023/05/19 05:44:08;;;;;;;6.70;3.00;;;16.80;53.60;;;;;;6171110;23;20374;-73
2023/05/19 05:46:35;;;;;;;5.23;2.63;;;17.00;52.30;;;;;;6174735;23;20472;-73
2023/05/19 05:49:02;;;;;;;5.17;2.10;;;17.30;52.20;;;;;;6173685;23;20406;-72
2023/05/19 05:51:28;;;;;;;4.77;2.63;;;17.50;51.30;;;;;;6172688;23;20409;-73
2023/05/19 05:53:55;;;;;;;7.17;2.83;;;17.60;50.60;;;;;;6173399;23;20425;-74
2023/05/19 05:56:26;;;;;;;8.00;3.17;;;17.80;50.30;;;;;;6173696;23;20861;-73
2023/05/19 05:58:53;;;;;;;4.67;2.10;;;17.80;49.50;;;;;;6172224;23;20405;-75
2023/05/19 06:01:19;;;;;;;4.27;2.47;;;18.00;49.40;;;;;;6172745;23;20489;-75
2023/05/19 06:03:45;;;;;;;4.67;3.03;;;18.10;49.10;;;;;;6172230;23;20146;-74
2023/05/19 06:06:15;;;;;;;6.80;3.60;;;18.30;48.40;;;;;;6170142;23;20390;-73
2023/05/19 06:08:41;;;;;;;7.50;3.20;;;18.30;47.60;;;;;;6170516;23;20404;-71
2023/05/19 06:11:08;;;;;;;3.33;2.70;;;18.40;47.30;;;;;;6170904;23;20189;-73
2023/05/19 06:13:35;;;;;;;5.10;2.80;;;18.50;47.60;;;;;;6170609;23;20155;-72
2023/05/19 06:16:03;;;;;;;3.33;2.13;;;18.70;47.30;;;;;;6145696;23;20390;-73
2023/05/19 06:18:34;;;;;;;3.07;2.10;;;18.90;46.80;;;;;;6169053;23;20817;-73
2023/05/19 06:21:00;;;;;;;9.03;2.60;;;19.00;45.50;;;;;;6203631;23;20446;-76
2023/05/19 06:23:27;;;;;;;5.90;2.83;;;19.00;44.10;;;;;;6173326;23;20146;-75
2023/05/19 06:25:53;;;;;;;4.20;2.57;;;18.70;44.00;;;;;;6170524;23;20374;-77
2023/05/19 06:28:19;;;;;;;6.80;2.80;;;18.60;44.40;;;;;;6144504;23;20425;-73
2023/05/19 06:30:45;;;;;;;6.13;2.20;;;18.50;44.60;;;;;;6169284;23;20206;-74
2023/05/19 06:33:21;;;;;;;4.70;2.17;;;18.50;44.70;;;;;;6169411;23;20374;-75
2023/05/19 06:35:47;;;;;;;4.97;2.67;;;18.60;44.80;;;;;;6197220;23;20388;-74
2023/05/19 06:38:13;;;;;;;5.50;2.20;;;18.60;44.60;;;;;;6147532;23;20438;-73
2023/05/19 06:40:40;;;;;;;4.50;2.40;;;18.70;44.30;;;;;;6172315;23;20398;-73
2023/05/19 06:43:06;;;;;;;4.77;2.07;;;18.60;43.90;;;;;;6171972;23;20801;-75
2023/05/19 06:45:50;;;;;;;6.10;1.90;;;18.50;44.10;;;;;;6175138;23;20138;-75
2023/05/19 06:48:17;;;;;;;6.17;2.30;;;18.50;44.10;;;;;;6172233;23;20858;-74
2023/05/19 06:50:42;;;;;;;6.20;3.40;;;18.40;44.20;;;;;;6146827;23;20394;-74
2023/05/19 06:53:09;;;;;;;10.03;3.00;;;18.20;44.10;;;;;;6173542;23;20142;-77
2023/05/19 06:55:35;;;;;;;5.50;2.37;;;18.20;44.30;;;;;;6175924;23;20374;-75
2023/05/19 06:58:01;;;;;;;6.00;2.83;;;18.10;44.20;;;;;;6173124;23;20362;-74
2023/05/19 07:00:26;;;;;;;6.97;1.90;;;17.90;44.40;;;;;;6176071;23;20153;-77
2023/05/19 07:02:53;;;;;;;8.07;2.67;;;17.90;44.70;;;;;;6172005;23;20224;-75
2023/05/19 07:05:19;;;;;;;5.50;2.70;;;17.70;44.80;;;;;;6171536;23;20400;-75
2023/05/19 07:07:49;;;;;;;7.23;2.90;;;17.70;44.90;;;;;;6169845;23;20160;-75
2023/05/19 07:10:20;;;;;;;4.40;2.77;;;17.70;44.70;;;;;;6171665;23;20394;-74
2023/05/19 07:12:46;;;;;;;7.30;2.03;;;17.60;45.10;;;;;;6145546;23;20370;-74
2023/05/19 07:15:14;;;;;;;4.50;2.30;;;17.70;45.20;;;;;;6170211;23;20378;-74
2023/05/19 07:17:39;;;;;;;5.00;2.40;;;17.50;44.90;;;;;;6196492;23;20358;-73
2023/05/19 07:20:06;;;;;;;4.63;2.10;;;17.30;45.40;;;;;;6169246;23;20249;-74
2023/05/19 07:22:34;;;;;;;5.57;3.20;;;17.10;45.70;;;;;;6146989;23;20179;-75
2023/05/19 07:25:00;;;;;;;3.93;2.00;;;16.70;46.00;;;;;;6194212;23;20362;-74
2023/05/19 07:27:28;;;;;;;4.47;2.00;;;16.40;46.50;;;;;;6195673;23;20350;-73
2023/05/19 07:29:53;;;;;;;4.90;2.83;;;16.20;47.40;;;;;;6168229;23;20390;-75
2023/05/19 07:32:19;;;;;;;3.17;1.60;;;16.00;47.70;;;;;;6197939;23;20138;-74
2023/05/19 07:34:45;;;;;;;8.77;2.47;;;15.80;48.10;;;;;;6199172;23;20147;-77
2023/05/19 07:37:10;;;;;;;5.90;2.27;;;15.70;48.30;;;;;;6151515;23;20216;-72
2023/05/19 07:39:36;;;;;;;6.73;2.40;;;15.70;48.50;;;;;;6170798;23;20166;-76
2023/05/19 07:42:02;;;;;;;4.23;1.87;;;15.70;48.60;;;;;;6171070;23;20317;-74
2023/05/19 07:44:30;;;;;;;9.30;3.13;;;15.60;48.80;;;;;;6196759;23;20137;-76
2023/05/19 07:46:57;;;;;;;6.03;2.40;;;15.50;49.10;;;;;;6197073;23;20134;-75
2023/05/19 07:49:22;;;;;;;3.20;1.67;;;15.50;49.40;;;;;;6196874;23;20419;-75
2023/05/19 07:51:48;;;;;;;4.93;1.77;;;15.50;49.50;;;;;;6171163;23;20448;-77
2023/05/19 07:54:14;;;;;;;4.17;1.80;;;15.60;49.60;;;;;;6173442;23;20153;-75
2023/05/19 07:56:40;;;;;;;9.80;2.50;;;15.60;49.50;;;;;;6170533;23;20149;-77
2023/05/19 07:59:06;;;;;;;5.33;1.60;;;15.70;49.70;;;;;;6169830;23;20252;-75
2023/05/19 08:01:32;;;;;;;4.30;2.23;;;15.80;49.50;;;;;;6170491;23;20622;-74
2023/05/19 08:03:58;;;;;;;5.80;2.80;;;15.90;49.20;;;;;;6198042;23;20412;-76
2023/05/19 08:06:24;;;;;;;5.57;2.63;;;16.00;49.10;;;;;;6152460;23;20386;-75
2023/05/19 08:08:50;;;;;;;4.43;2.13;;;15.90;49.00;;;;;;6199281;23;20377;-75
2023/05/19 08:11:16;;;;;;;3.67;1.70;;;16.00;48.90;;;;;;6174097;23;20177;-74
2023/05/19 08:13:42;;;;;;;7.20;2.70;;;16.00;48.90;;;;;;6198915;23;20359;-75
2023/05/19 08:16:07;;;;;;;6.13;2.30;;;16.10;48.80;;;;;;6198146;23;20142;-74
2023/05/19 08:18:33;;;;;;;3.20;2.00;;;16.10;48.60;;;;;;6172797;23;20143;-74
2023/05/19 08:20:58;;;;;;;3.53;1.80;;;16.10;48.50;;;;;;6200226;23;20228;-75
2023/05/19 08:23:24;;;;;;;3.20;2.10;;;16.20;48.70;;;;;;6172488;23;20135;-76
2023/05/19 08:25:51;;;;;;;7.37;3.10;;;16.30;48.50;;;;;;6171390;23;20174;-74
2023/05/19 08:28:20;;;;;;;5.97;3.13;;;16.40;48.10;;;;;;6175447;23;20139;-73
2023/05/19 08:30:45;;;;;;;4.27;3.10;;;16.40;47.70;;;;;;6204313;23;20417;-75
2023/05/19 08:33:11;;;;;;;5.60;2.60;;;16.40;47.60;;;;;;6176253;23;20135;-74
2023/05/19 08:35:37;;;;;;;7.57;2.37;;;16.40;47.80;;;;;;6152227;23;20151;-76
2023/05/19 08:38:02;;;;;;;4.03;1.83;;;16.50;47.70;;;;;;6176395;23;20152;-73
2023/05/19 08:40:30;;;;;;;3.50;1.90;;;16.60;47.40;;;;;;6198313;23;20162;-76
2023/05/19 08:42:56;;;;;;;3.00;1.90;;;16.70;47.00;;;;;;6198080;23;20164;-75
2023/05/19 08:45:21;;;;;;;5.43;2.00;;;16.60;46.90;;;;;;6200840;23;20354;-76
2023/05/19 08:47:49;;;;;;;5.27;2.37;;;16.70;47.00;;;;;;6175272;23;20147;-74
2023/05/19 08:50:27;;;;;;;4.77;1.67;;;16.70;46.60;;;;;;6177395;23;20190;-77
2023/05/19 08:53:12;;;;;;;5.93;2.07;;;16.80;46.60;;;;;;6178569;23;20368;-74
2023/05/19 08:55:45;;;;;;;6.40;2.77;;;16.80;46.10;;;;;;6200289;23;20414;-74
2023/05/19 08:58:12;;;;;;;4.37;1.90;;;16.80;45.60;;;;;;6199869;23;20831;-75
2023/05/19 09:00:37;;;;;;;3.63;2.07;;;16.80;45.50;;;;;;6201893;23;20394;-74
2023/05/19 09:03:04;;;;;;;4.80;2.70;;;16.80;45.60;;;;;;6200835;23;20507;-74
2023/05/19 09:05:31;;;;;;;5.30;2.57;;;16.90;45.80;;;;;;6175864;23;20149;-75
2023/05/19 09:07:56;;;;;;;2.80;1.63;;;17.00;46.10;;;;;;6173074;23;20406;-76
2023/05/19 09:10:22;;;;;;;2.27;1.60;;;17.10;45.90;;;;;;6176409;23;20708;-75
2023/05/19 09:12:48;;;;;;;7.10;2.50;;;17.20;45.00;;;;;;6203376;23;20582;-76
2023/05/19 09:15:19;;;;;;;3.00;1.53;;;17.30;44.70;;;;;;6154979;23;20177;-76
2023/05/19 09:17:47;;;;;;;4.80;2.50;;;17.30;44.70;;;;;;6204524;23;20585;-75
2023/05/19 09:20:15;;;;;;;6.63;2.10;;;17.20;44.50;;;;;;6152008;23;20477;-77
2023/05/19 09:22:44;;;;;;;4.03;1.80;;;17.30;44.30;;;;;;6180598;23;20429;-77
2023/05/19 09:25:21;;;;;;;5.73;2.17;;;17.30;44.20;;;;;;6178579;23;20382;-78
2023/05/19 09:27:47;;;;;;;8.20;2.73;;;17.40;43.90;;;;;;6179374;23;20381;-77
2023/05/19 09:30:15;;;;;;;8.13;2.23;;;17.40;43.50;;;;;;6204919;23;20462;-77
2023/05/19 09:32:41;;;;;;;3.57;1.80;;;17.50;43.50;;;;;;6182230;23;20485;-77
2023/05/19 09:35:08;;;;;;;5.77;2.70;;;17.40;43.60;;;;;;6208126;23;20374;-77
2023/05/19 09:37:33;;;;;;;6.63;2.03;;;17.50;43.40;;;;;;6156377;23;20147;-76
2023/05/19 09:40:04;;;;;;;3.17;2.17;;;17.60;43.50;;;;;;6203909;23;20390;-76
2023/05/19 09:42:35;;;;;;;4.97;2.33;;;17.70;43.40;;;;;;6174487;23;20682;-74
2023/05/19 09:45:02;;;;;;;6.40;1.80;;;17.90;43.40;;;;;;6175797;23;20409;-76
2023/05/19 09:47:39;;;;;;;8.70;2.70;;;18.00;43.80;;;;;;6179534;23;20449;-74
2023/05/19 09:50:07;;;;;;;6.43;2.07;;;18.10;43.30;;;;;;6170976;23;20448;-77
2023/05/19 09:52:42;;;;;;;4.40;1.90;;;18.30;43.30;;;;;;6179807;23;20405;-78
2023/05/19 09:55:11;;;;;;;7.07;3.03;;;18.60;42.80;;;;;;6176109;23;20381;-77
2023/05/19 09:57:38;;;;;;;4.37;2.00;;;18.90;41.50;;;;;;6204587;23;20374;-75
2023/05/19 10:00:18;;;;;;;5.50;2.07;;;19.20;40.90;;;;;;6201046;23;20400;-76
2023/05/19 10:02:46;;;;;;;5.80;2.00;;;19.40;40.80;;;;;;6203643;23;20475;-76
2023/05/19 10:05:15;;;;;;;4.40;2.30;;;19.50;40.60;;;;;;6202360;23;20496;-78
2023/05/19 10:07:43;;;;;;;5.63;2.30;;;19.50;41.10;;;;;;6201747;23;20393;-77
2023/05/19 10:10:11;;;;;;;4.97;2.30;;;19.60;39.90;;;;;;6150636;23;20408;-74
2023/05/19 10:12:38;;;;;;;5.50;2.20;;;19.60;39.30;;;;;;6174831;23;20394;-77
2023/05/19 10:15:11;;;;;;;5.23;1.87;;;19.40;39.10;;;;;;6175056;23;20823;-77
2023/05/19 10:17:41;;;;;;;5.03;1.83;;;19.30;39.50;;;;;;6151776;23;20374;-77
2023/05/19 10:20:12;;;;;;;5.77;1.97;;;19.40;39.40;;;;;;6175082;23;20413;-74
2023/05/19 10:22:39;;;;;;;5.50;2.30;;;19.40;39.40;;;;;;6174964;23;20409;-77
2023/05/19 10:25:06;;;;;;;5.43;3.33;;;19.50;39.00;;;;;;6201142;23;20365;-77
2023/05/19 10:27:35;;;;;;;2.27;1.77;;;19.50;39.20;;;;;;6153758;23;20374;-78
2023/05/19 10:30:11;;;;;;;5.97;2.30;;;19.50;39.70;;;;;;6150956;23;20405;-76
2023/05/19 10:32:40;;;;;;;4.40;3.20;;;19.60;39.50;;;;;;6173660;23;20902;-76
2023/05/19 10:35:19;;;;;;;10.20;4.60;;;19.70;40.10;;;;;;6175911;23;20374;-74
2023/05/19 10:37:58;;;;;;;3.60;2.40;;;19.70;39.30;;;;;;6176460;23;20367;-76
2023/05/19 10:40:28;;;;;;;6.80;2.20;;;19.80;39.70;;;;;;6174745;23;20402;-76
2023/05/19 10:43:06;;;;;;;3.83;2.30;;;20.00;39.70;;;;;;6176791;23;20437;-77
2023/05/19 10:45:40;;;;;;;8.80;2.30;;;20.00;39.20;;;;;;6177897;23;20373;-75
2023/05/19 10:48:12;;;;;;;6.20;2.87;;;20.10;38.40;;;;;;6149532;23;20370;-77
2023/05/19 10:50:38;;;;;;;5.10;2.77;;;20.10;38.60;;;;;;6153988;23;20397;-77
2023/05/19 10:53:04;;;;;;;3.77;1.93;;;20.10;38.10;;;;;;6178089;23;20352;-76
2023/05/19 10:55:54;;;;;;;3.43;2.53;;;20.00;38.50;;;;;;6179427;23;20494;-79
2023/05/19 10:58:54;;;;;;;3.93;1.60;;;20.00;37.80;;;;;;6178323;23;20149;-78
2023/05/19 11:01:23;;;;;;;6.40;2.47;;;19.90;38.50;;;;;;6204192;23;20517;-77
2023/05/19 11:03:51;;;;;;;3.10;1.90;;;19.90;38.70;;;;;;6174869;23;20419;-76
2023/05/19 11:06:20;;;;;;;6.00;2.07;;;19.90;38.80;;;;;;6175035;23;20398;-77
2023/05/19 11:08:50;;;;;;;6.27;2.57;;;19.90;38.10;;;;;;6205475;23;20367;-78
2023/05/19 11:11:17;;;;;;;2.60;1.77;;;19.90;38.40;;;;;;6178732;23;20438;-78
2023/05/19 11:13:47;;;;;;;3.30;1.40;;;19.80;38.40;;;;;;6179026;23;20370;-76
2023/05/19 11:16:13;;;;;;;3.40;1.90;;;19.90;38.30;;;;;;6204293;23;20367;-78
2023/05/19 11:18:39;;;;;;;5.90;2.07;;;19.90;37.90;;;;;;6209494;23;20639;-78
2023/05/19 11:21:05;;;;;;;6.37;2.23;;;19.90;37.50;;;;;;6183683;23;20176;-77
2023/05/19 11:23:38;;;;;;;3.60;2.17;;;19.80;37.60;;;;;;6183780;23;20374;-79
2023/05/19 11:26:07;;;;;;;3.47;2.20;;;19.90;37.50;;;;;;6179314;23;20148;-75
2023/05/19 11:28:33;;;;;;;5.43;2.30;;;19.90;37.60;;;;;;6179376;23;20379;-75
2023/05/19 11:31:01;;;;;;;2.77;2.00;;;20.00;37.70;;;;;;6207011;23;20421;-77
2023/05/19 11:33:27;;;;;;;4.70;2.60;;;20.30;37.50;;;;;;6205073;23;20357;-77
2023/05/19 11:35:58;;;;;;;5.43;2.20;;;20.40;37.50;;;;;;6179926;23;20383;-77
2023/05/19 11:38:24;;;;;;;4.90;2.50;;;20.70;36.50;;;;;;6179244;23;20352;-78
2023/05/19 11:40:52;;;;;;;7.03;2.10;;;20.70;35.90;;;;;;6180248;23;20867;-79
2023/05/19 11:43:18;;;;;;;7.80;2.67;;;20.70;35.60;;;;;;6181092;23;20361;-78
2023/05/19 11:45:44;;;;;;;6.30;2.80;;;20.70;36.00;;;;;;6181768;23;20374;-77
2023/05/19 11:48:14;;;;;;;3.90;1.90;;;21.00;36.20;;;;;;6207388;23;20164;-77
2023/05/19 11:50:41;;;;;;;5.60;2.33;;;21.00;35.90;;;;;;6185185;23;20389;-78
2023/05/19 11:53:12;;;;;;;4.10;2.03;;;20.90;35.70;;;;;;6161286;23;20392;-77
2023/05/19 11:55:42;;;;;;;4.80;1.97;;;20.80;36.00;;;;;;6180550;23;20363;-77
2023/05/19 11:58:08;;;;;;;7.67;3.17;;;20.60;35.60;;;;;;6176294;23;20419;-77
2023/05/19 12:00:38;;;;;;;8.57;4.17;;;20.30;36.00;;;;;;6179219;23;20395;-77
2023/05/19 12:03:04;;;;;;;5.23;2.90;;;20.20;36.10;;;;;;6178593;23;20154;-78
2023/05/19 12:05:30;;;;;;;4.30;2.00;;;20.10;36.40;;;;;;6154759;23;20393;-75
2023/05/19 12:07:56;;;;;;;3.80;2.10;;;20.20;36.00;;;;;;6178843;23;20578;-77
2023/05/19 12:10:23;;;;;;;6.90;2.93;;;20.30;36.00;;;;;;6177985;23;20421;-76
2023/05/19 12:12:53;;;;;;;9.43;2.17;;;20.40;36.20;;;;;;6180732;23;20368;-78
2023/05/19 12:15:22;;;;;;;5.93;2.60;;;20.50;35.70;;;;;;6178133;23;20365;-77
2023/05/19 12:17:59;;;;;;;5.77;2.47;;;20.60;35.50;;;;;;6177555;23;20392;-76
2023/05/19 12:20:31;;;;;;;5.80;2.37;;;20.70;35.00;;;;;;6181093;23;20403;-77
2023/05/19 12:22:58;;;;;;;5.37;2.40;;;20.70;34.80;;;;;;6177510;23;20473;-78
2023/05/19 12:25:24;;;;;;;4.07;2.50;;;20.60;34.70;;;;;;6181585;23;20372;-77
2023/05/19 12:27:52;;;;;;;6.60;2.70;;;20.40;35.60;;;;;;6182391;23;20409;-76
2023/05/19 12:30:23;;;;;;;5.03;2.67;;;20.40;35.50;;;;;;6178626;23;20398;-77
2023/05/19 12:32:50;;;;;;;8.57;2.30;;;20.50;35.70;;;;;;6158030;23;20368;-78
2023/05/19 12:35:16;;;;;;;6.70;2.80;;;20.60;35.60;;;;;;6181510;23;20391;-77
2023/05/19 12:37:42;;;;;;;5.10;2.90;;;20.70;35.50;;;;;;6178876;23;20417;-78
2023/05/19 12:40:08;;;;;;;6.73;2.40;;;20.60;35.50;;;;;;6180637;23;20174;-77
2023/05/19 12:42:34;;;;;;;6.10;2.20;;;20.50;35.40;;;;;;6180421;23;20172;-78
2023/05/19 12:45:03;;;;;;;5.30;2.50;;;20.40;35.40;;;;;;6205324;23;20369;-77
2023/05/19 12:47:34;;;;;;;6.87;2.10;;;20.50;35.30;;;;;;6183002;23;20356;-77
2023/05/19 12:50:09;;;;;;;4.60;2.60;;;20.60;35.70;;;;;;6156723;23;20428;-77
2023/05/19 12:52:42;;;;;;;8.60;2.63;;;20.70;35.20;;;;;;6207515;23;20377;-77
2023/05/19 12:55:09;;;;;;;4.87;2.20;;;20.70;35.30;;;;;;6184718;23;20365;-77
2023/05/19 12:57:40;;;;;;;5.40;2.13;;;20.70;35.30;;;;;;6183665;23;20395;-77